sensor_id;sensor_type;location;lat;lon;timestamp;pressure;altitude;pressure_sealevel;temperature;humidity
75208;BME280;63795;55.684;37.864;2023-05-10T00:01:42;100838.69;;;10.31;32.87
75208;BME280;63795;55.684;37.864;2023-05-10T00:06:43;100831.03;;;10.31;32.29
75208;BME280;63795;55.684;37.864;2023-05-10T00:11:43;100832.59;;;10.28;33.40
75208;BME280;63795;55.684;37.864;2023-05-10T00:16:44;100832.25;;;10.30;32.35
75208;BME280;63795;55.684;37.864;2023-05-10T00:21:44;100830.97;;;10.27;33.80
75208;BME280;63795;55.684;37.864;2023-05-10T00:26:45;100827.22;;;10.20;33.02
75208;BME280;63795;55.684;37.864;2023-05-10T00:31:45;100825.09;;;10.13;33.30
75208;BME280;63795;55.684;37.864;2023-05-10T00:36:46;100836.16;;;10.22;32.67
75208;BME280;63795;55.684;37.864;2023-05-10T00:41:46;100831.25;;;10.19;32.68
75208;BME280;63795;55.684;37.864;2023-05-10T00:46:47;100830.41;;;10.18;34.08
75208;BME280;63795;55.684;37.864;2023-05-10T00:51:48;100840.13;;;10.17;32.92
75208;BME280;63795;55.684;37.864;2023-05-10T00:56:49;100839.34;;;10.20;33.24
75208;BME280;63795;55.684;37.864;2023-05-10T01:01:50;100830.38;;;10.15;33.86
75208;BME280;63795;55.684;37.864;2023-05-10T01:06:52;100828.59;;;10.07;33.83
75208;BME280;63795;55.684;37.864;2023-05-10T01:11:54;100827.75;;;10.06;33.15
75208;BME280;63795;55.684;37.864;2023-05-10T01:16:55;100821.16;;;9.99;33.96
75208;BME280;63795;55.684;37.864;2023-05-10T01:43:28;100820.19;;;9.88;34.58
75208;BME280;63795;55.684;37.864;2023-05-10T01:48:32;100817.78;;;9.90;34.54
75208;BME280;63795;55.684;37.864;2023-05-10T01:53:35;100813.75;;;9.91;34.20
75208;BME280;63795;55.684;37.864;2023-05-10T01:58:40;100810.03;;;9.87;35.37
75208;BME280;63795;55.684;37.864;2023-05-10T02:03:44;100821.84;;;9.92;34.60
75208;BME280;63795;55.684;37.864;2023-05-10T02:08:45;100819.34;;;9.87;35.37
75208;BME280;63795;55.684;37.864;2023-05-10T02:13:49;100808.28;;;9.79;35.15
75208;BME280;63795;55.684;37.864;2023-05-10T02:18:51;100819.16;;;9.77;36.30
75208;BME280;63795;55.684;37.864;2023-05-10T02:23:53;100816.34;;;9.77;35.27
75208;BME280;63795;55.684;37.864;2023-05-10T02:28:56;100816.03;;;9.82;34.89
75208;BME280;63795;55.684;37.864;2023-05-10T02:33:58;100813.75;;;9.91;34.61
75208;BME280;63795;55.684;37.864;2023-05-10T02:39:00;100809.41;;;9.97;34.86
75208;BME280;63795;55.684;37.864;2023-05-10T02:44:02;100806.69;;;10.04;34.46
75208;BME280;63795;55.684;37.864;2023-05-10T02:49:07;100801.03;;;10.04;34.64
75208;BME280;63795;55.684;37.864;2023-05-10T02:54:11;100793.88;;;10.10;34.52
75208;BME280;63795;55.684;37.864;2023-05-10T02:59:12;100796.31;;;10.11;34.91
75208;BME280;63795;55.684;37.864;2023-05-10T03:04:13;100803.91;;;10.07;35.73
75208;BME280;63795;55.684;37.864;2023-05-10T03:09:13;100802.97;;;10.00;35.44
75208;BME280;63795;55.684;37.864;2023-05-10T03:19:27;100793.47;;;9.89;36.51
75208;BME280;63795;55.684;37.864;2023-05-10T03:24:30;100797.97;;;9.90;36.05
75208;BME280;63795;55.684;37.864;2023-05-10T03:29:33;100791.91;;;9.91;36.13
75208;BME280;63795;55.684;37.864;2023-05-10T03:34:33;100803.28;;;9.95;36.42
75208;BME280;63795;55.684;37.864;2023-05-10T03:39:34;100796.88;;;9.98;36.26
75208;BME280;63795;55.684;37.864;2023-05-10T03:44:34;100800.25;;;10.07;36.29
75208;BME280;63795;55.684;37.864;2023-05-10T03:49:35;100792.19;;;10.09;36.41
75208;BME280;63795;55.684;37.864;2023-05-10T03:54:35;100796.25;;;10.08;36.46
75208;BME280;63795;55.684;37.864;2023-05-10T03:59:36;100801.16;;;10.11;35.64
75208;BME280;63795;55.684;37.864;2023-05-10T04:04:36;100792.00;;;10.21;35.75
75208;BME280;63795;55.684;37.864;2023-05-10T04:09:37;100797.38;;;10.26;36.18
75208;BME280;63795;55.684;37.864;2023-05-10T04:14:37;100796.16;;;10.27;36.47
75208;BME280;63795;55.684;37.864;2023-05-10T04:19:38;100791.00;;;10.36;35.98
75208;BME280;63795;55.684;37.864;2023-05-10T04:24:38;100783.06;;;10.45;36.38
75208;BME280;63795;55.684;37.864;2023-05-10T04:29:39;100780.66;;;10.47;36.79
75208;BME280;63795;55.684;37.864;2023-05-10T04:34:40;100782.38;;;10.55;36.35
75208;BME280;63795;55.684;37.864;2023-05-10T04:39:40;100776.78;;;10.62;37.14
75208;BME280;63795;55.684;37.864;2023-05-10T04:44:41;100777.66;;;10.66;37.18
75208;BME280;63795;55.684;37.864;2023-05-10T04:49:41;100787.13;;;10.77;36.81
75208;BME280;63795;55.684;37.864;2023-05-10T04:54:42;100778.34;;;10.86;37.17
75208;BME280;63795;55.684;37.864;2023-05-10T04:59:42;100780.84;;;10.94;36.43
75208;BME280;63795;55.684;37.864;2023-05-10T05:04:42;100765.22;;;11.07;36.54
75208;BME280;63795;55.684;37.864;2023-05-10T05:09:43;100764.50;;;11.18;36.21
75208;BME280;63795;55.684;37.864;2023-05-10T05:14:43;100763.44;;;11.33;36.37
75208;BME280;63795;55.684;37.864;2023-05-10T05:19:44;100755.56;;;11.52;35.74
75208;BME280;63795;55.684;37.864;2023-05-10T05:24:44;100761.84;;;11.72;35.62
75208;BME280;63795;55.684;37.864;2023-05-10T05:29:45;100748.19;;;11.91;35.53
75208;BME280;63795;55.684;37.864;2023-05-10T05:34:45;100747.53;;;12.12;34.78
75208;BME280;63795;55.684;37.864;2023-05-10T05:39:47;100751.22;;;12.16;34.49
75208;BME280;63795;55.684;37.864;2023-05-10T05:44:47;100750.56;;;12.40;34.85
75208;BME280;63795;55.684;37.864;2023-05-10T05:49:48;100744.56;;;12.59;33.51
75208;BME280;63795;55.684;37.864;2023-05-10T05:54:48;100747.88;;;12.72;32.95
75208;BME280;63795;55.684;37.864;2023-05-10T05:59:51;100741.00;;;12.83;32.26
75208;BME280;63795;55.684;37.864;2023-05-10T06:04:52;100735.38;;;12.94;32.65
75208;BME280;63795;55.684;37.864;2023-05-10T06:09:52;100745.59;;;13.13;31.75
75208;BME280;63795;55.684;37.864;2023-05-10T06:14:53;100738.31;;;13.33;32.02
75208;BME280;63795;55.684;37.864;2023-05-10T06:19:53;100736.72;;;13.46;29.60
75208;BME280;63795;55.684;37.864;2023-05-10T06:24:54;100735.09;;;13.45;28.06
75208;BME280;63795;55.684;37.864;2023-05-10T06:29:54;100736.72;;;13.42;27.90
75208;BME280;63795;55.684;37.864;2023-05-10T06:34:55;100726.97;;;13.40;28.29
75208;BME280;63795;55.684;37.864;2023-05-10T06:39:55;100723.72;;;13.59;27.65
75208;BME280;63795;55.684;37.864;2023-05-10T06:44:56;100722.09;;;14.00;27.71
75208;BME280;63795;55.684;37.864;2023-05-10T06:49:56;100712.66;;;14.31;26.97
75208;BME280;63795;55.684;37.864;2023-05-10T06:54:57;100718.69;;;14.69;26.42
75208;BME280;63795;55.684;37.864;2023-05-10T06:59:58;100722.56;;;15.06;26.15
75208;BME280;63795;55.684;37.864;2023-05-10T07:04:59;100724.91;;;15.25;25.49
75208;BME280;63795;55.684;37.864;2023-05-10T07:09:59;100708.97;;;15.28;25.91
75208;BME280;63795;55.684;37.864;2023-05-10T07:15:00;100705.97;;;15.49;24.72
75208;BME280;63795;55.684;37.864;2023-05-10T07:20:01;100705.44;;;15.68;24.74
75208;BME280;63795;55.684;37.864;2023-05-10T07:25:02;100708.13;;;15.86;25.88
75208;BME280;63795;55.684;37.864;2023-05-10T07:30:02;100697.25;;;15.70;25.17
75208;BME280;63795;55.684;37.864;2023-05-10T07:35:03;100703.66;;;15.81;24.20
75208;BME280;63795;55.684;37.864;2023-05-10T07:40:04;100695.03;;;15.88;23.92
75208;BME280;63795;55.684;37.864;2023-05-10T07:45:05;100694.38;;;16.14;24.75
75208;BME280;63795;55.684;37.864;2023-05-10T07:50:07;100696.91;;;16.09;22.96
75208;BME280;63795;55.684;37.864;2023-05-10T07:55:08;100694.06;;;16.05;23.80
75208;BME280;63795;55.684;37.864;2023-05-10T08:00:11;100692.81;;;16.44;23.54
75208;BME280;63795;55.684;37.864;2023-05-10T08:05:12;100685.19;;;17.01;24.56
75208;BME280;63795;55.684;37.864;2023-05-10T08:10:13;100672.75;;;17.64;23.63
75208;BME280;63795;55.684;37.864;2023-05-10T08:15:14;100679.13;;;17.75;22.56
75208;BME280;63795;55.684;37.864;2023-05-10T08:20:14;100669.28;;;18.00;21.10
75208;BME280;63795;55.684;37.864;2023-05-10T08:25:19;100657.53;;;17.91;20.33
75208;BME280;63795;55.684;37.864;2023-05-10T08:30:19;100655.34;;;18.41;20.27
75208;BME280;63795;55.684;37.864;2023-05-10T08:35:20;100652.88;;;19.18;21.03
75208;BME280;63795;55.684;37.864;2023-05-10T08:40:20;100655.44;;;19.80;21.06
75208;BME280;63795;55.684;37.864;2023-05-10T08:45:22;100660.78;;;20.26;19.69
75208;BME280;63795;55.684;37.864;2023-05-10T08:50:24;100641.69;;;19.88;18.29
75208;BME280;63795;55.684;37.864;2023-05-10T08:55:25;100643.84;;;19.35;18.83
75208;BME280;63795;55.684;37.864;2023-05-10T09:00:26;100641.47;;;20.11;17.91
75208;BME280;63795;55.684;37.864;2023-05-10T09:05:28;100633.28;;;20.25;19.22
75208;BME280;63795;55.684;37.864;2023-05-10T09:10:29;100628.91;;;19.89;20.07
75208;BME280;63795;55.684;37.864;2023-05-10T09:15:30;100617.22;;;19.31;19.56
75208;BME280;63795;55.684;37.864;2023-05-10T09:20:31;100615.28;;;18.34;20.01
75208;BME280;63795;55.684;37.864;2023-05-10T09:25:31;100621.47;;;18.13;20.89
75208;BME280;63795;55.684;37.864;2023-05-10T09:30:35;100617.66;;;17.96;20.22
75208;BME280;63795;55.684;37.864;2023-05-10T09:35:36;100611.78;;;17.60;20.50
75208;BME280;63795;55.684;37.864;2023-05-10T09:40:37;100597.44;;;17.34;20.92
75208;BME280;63795;55.684;37.864;2023-05-10T09:45:37;100601.31;;;17.50;20.71
75208;BME280;63795;55.684;37.864;2023-05-10T09:50:38;100597.66;;;17.93;20.77
75208;BME280;63795;55.684;37.864;2023-05-10T09:55:43;100586.44;;;18.02;20.85
75208;BME280;63795;55.684;37.864;2023-05-10T10:00:49;100582.44;;;17.53;20.29
75208;BME280;63795;55.684;37.864;2023-05-10T10:05:52;100574.06;;;17.12;20.63
75208;BME280;63795;55.684;37.864;2023-05-10T10:10:53;100569.69;;;17.04;21.24
75208;BME280;63795;55.684;37.864;2023-05-10T10:15:54;100559.13;;;17.24;20.52
75208;BME280;63795;55.684;37.864;2023-05-10T10:20:55;100553.88;;;17.89;20.67
75208;BME280;63795;55.684;37.864;2023-05-10T10:25:56;100560.16;;;18.23;19.68
75208;BME280;63795;55.684;37.864;2023-05-10T10:31:01;100552.13;;;18.34;19.74
75208;BME280;63795;55.684;37.864;2023-05-10T10:36:12;100547.72;;;18.85;20.45
75208;BME280;63795;55.684;37.864;2023-05-10T10:46:34;100542.09;;;19.13;19.13
75208;BME280;63795;55.684;37.864;2023-05-10T10:51:39;100537.03;;;18.85;20.66
75208;BME280;63795;55.684;37.864;2023-05-10T10:56:41;100535.47;;;18.64;19.24
75208;BME280;63795;55.684;37.864;2023-05-10T11:01:41;100528.06;;;18.83;20.28
75208;BME280;63795;55.684;37.864;2023-05-10T11:06:44;100523.94;;;19.32;20.46
75208;BME280;63795;55.684;37.864;2023-05-10T11:11:52;100521.59;;;19.27;19.30
75208;BME280;63795;55.684;37.864;2023-05-10T11:16:55;100516.34;;;18.74;20.20
75208;BME280;63795;55.684;37.864;2023-05-10T11:27:05;100509.63;;;18.09;21.15
75208;BME280;63795;55.684;37.864;2023-05-10T11:32:06;100508.44;;;18.07;21.37
75208;BME280;63795;55.684;37.864;2023-05-10T11:37:08;100495.09;;;18.16;20.89
75208;BME280;63795;55.684;37.864;2023-05-10T11:42:08;100493.25;;;18.26;21.24
75208;BME280;63795;55.684;37.864;2023-05-10T11:47:11;100489.00;;;17.95;20.92
75208;BME280;63795;55.684;37.864;2023-05-10T11:52:12;100492.09;;;17.64;21.04
75208;BME280;63795;55.684;37.864;2023-05-10T11:57:12;100487.97;;;17.65;21.25
75208;BME280;63795;55.684;37.864;2023-05-10T12:02:13;100478.72;;;17.35;21.39
75208;BME280;63795;55.684;37.864;2023-05-10T12:07:14;100472.16;;;17.57;21.60
75208;BME280;63795;55.684;37.864;2023-05-10T12:12:17;100466.66;;;17.66;21.86
75208;BME280;63795;55.684;37.864;2023-05-10T12:17:18;100462.44;;;18.10;21.62
75208;BME280;63795;55.684;37.864;2023-05-10T12:22:20;100463.66;;;18.29;21.21
75208;BME280;63795;55.684;37.864;2023-05-10T12:27:21;100456.59;;;18.14;21.42
75208;BME280;63795;55.684;37.864;2023-05-10T12:32:37;100449.91;;;18.20;21.32
75208;BME280;63795;55.684;37.864;2023-05-10T12:37:37;100457.75;;;18.36;21.94
75208;BME280;63795;55.684;37.864;2023-05-10T12:42:40;100450.47;;;18.51;21.80
75208;BME280;63795;55.684;37.864;2023-05-10T12:47:41;100446.25;;;18.36;21.14
75208;BME280;63795;55.684;37.864;2023-05-10T12:52:41;100450.44;;;18.15;21.97
75208;BME280;63795;55.684;37.864;2023-05-10T12:57:42;100439.56;;;18.07;21.88
75208;BME280;63795;55.684;37.864;2023-05-10T13:02:42;100437.66;;;18.00;21.98
75208;BME280;63795;55.684;37.864;2023-05-10T13:07:43;100439.28;;;18.01;22.18
75208;BME280;63795;55.684;37.864;2023-05-10T13:12:44;100441.66;;;18.22;21.85
75208;BME280;63795;55.684;37.864;2023-05-10T13:17:44;100431.19;;;17.96;22.25
75208;BME280;63795;55.684;37.864;2023-05-10T13:22:45;100444.31;;;17.77;22.68
75208;BME280;63795;55.684;37.864;2023-05-10T13:27:46;100444.28;;;17.58;22.73
75208;BME280;63795;55.684;37.864;2023-05-10T13:32:46;100423.72;;;17.63;22.81
75208;BME280;63795;55.684;37.864;2023-05-10T13:37:47;100433.94;;;17.83;22.91
75208;BME280;63795;55.684;37.864;2023-05-10T13:42:47;100427.75;;;17.85;22.85
75208;BME280;63795;55.684;37.864;2023-05-10T13:47:47;100425.84;;;17.78;22.91
75208;BME280;63795;55.684;37.864;2023-05-10T13:52:48;100432.22;;;17.66;22.97
75208;BME280;63795;55.684;37.864;2023-05-10T13:57:48;100431.94;;;17.61;23.30
75208;BME280;63795;55.684;37.864;2023-05-10T14:02:49;100437.75;;;17.57;23.63
75208;BME280;63795;55.684;37.864;2023-05-10T14:07:50;100434.94;;;17.54;23.31
75208;BME280;63795;55.684;37.864;2023-05-10T14:12:51;100425.56;;;17.53;23.40
75208;BME280;63795;55.684;37.864;2023-05-10T14:17:51;100419.69;;;17.37;23.47
75208;BME280;63795;55.684;37.864;2023-05-10T14:22:52;100422.19;;;17.35;23.86
75208;BME280;63795;55.684;37.864;2023-05-10T14:27:52;100418.72;;;17.24;23.74
75208;BME280;63795;55.684;37.864;2023-05-10T14:32:54;100412.75;;;17.15;23.71
75208;BME280;63795;55.684;37.864;2023-05-10T14:37:55;100416.28;;;17.23;24.16
75208;BME280;63795;55.684;37.864;2023-05-10T14:42:56;100412.06;;;17.08;24.41
75208;BME280;63795;55.684;37.864;2023-05-10T14:47:57;100407.16;;;17.08;24.13
75208;BME280;63795;55.684;37.864;2023-05-10T14:58:38;100408.03;;;17.05;24.35
75208;BME280;63795;55.684;37.864;2023-05-10T15:03:39;100401.41;;;17.08;24.39
75208;BME280;63795;55.684;37.864;2023-05-10T15:08:40;100392.25;;;17.17;24.41
75208;BME280;63795;55.684;37.864;2023-05-10T15:13:41;100401.31;;;17.15;24.57
75208;BME280;63795;55.684;37.864;2023-05-10T15:18:41;100393.06;;;17.17;24.64
75208;BME280;63795;55.684;37.864;2023-05-10T15:23:42;100394.22;;;17.20;24.58
75208;BME280;63795;55.684;37.864;2023-05-10T15:28:42;100391.63;;;17.06;24.64
75208;BME280;63795;55.684;37.864;2023-05-10T15:33:43;100400.75;;;17.00;24.70
75208;BME280;63795;55.684;37.864;2023-05-10T15:38:44;100393.09;;;16.94;24.84
75208;BME280;63795;55.684;37.864;2023-05-10T15:43:44;100390.22;;;16.94;24.93
75208;BME280;63795;55.684;37.864;2023-05-10T15:48:45;100384.28;;;16.85;25.11
75208;BME280;63795;55.684;37.864;2023-05-10T15:53:45;100383.16;;;16.79;25.03
75208;BME280;63795;55.684;37.864;2023-05-10T15:58:46;100383.16;;;16.79;25.15
75208;BME280;63795;55.684;37.864;2023-05-10T16:03:46;100380.69;;;16.77;25.10
75208;BME280;63795;55.684;37.864;2023-05-10T16:08:47;100380.91;;;16.67;25.27
75208;BME280;63795;55.684;37.864;2023-05-10T16:13:47;100389.13;;;16.65;25.35
75208;BME280;63795;55.684;37.864;2023-05-10T16:18:48;100378.53;;;16.62;25.42
75208;BME280;63795;55.684;37.864;2023-05-10T16:23:48;100379.91;;;16.54;25.44
75208;BME280;63795;55.684;37.864;2023-05-10T16:28:49;100382.00;;;16.50;25.47
75208;BME280;63795;55.684;37.864;2023-05-10T16:33:49;100377.13;;;16.47;25.45
75208;BME280;63795;55.684;37.864;2023-05-10T16:38:50;100373.97;;;16.41;25.82
75208;BME280;63795;55.684;37.864;2023-05-10T16:43:50;100370.91;;;16.29;25.83
75208;BME280;63795;55.684;37.864;2023-05-10T16:48:51;100377.00;;;16.31;25.73
75208;BME280;63795;55.684;37.864;2023-05-10T16:53:52;100379.47;;;16.29;26.15
75208;BME280;63795;55.684;37.864;2023-05-10T16:58:52;100377.97;;;16.21;26.13
75208;BME280;63795;55.684;37.864;2023-05-10T17:03:53;100386.13;;;16.22;25.99
75208;BME280;63795;55.684;37.864;2023-05-10T17:08:53;100381.31;;;16.15;25.95
75208;BME280;63795;55.684;37.864;2023-05-10T17:13:54;100381.75;;;16.14;26.10
75208;BME280;63795;55.684;37.864;2023-05-10T17:18:54;100385.88;;;16.09;26.30
75208;BME280;63795;55.684;37.864;2023-05-10T17:23:55;100386.38;;;16.04;26.42
75208;BME280;63795;55.684;37.864;2023-05-10T17:28:56;100390.09;;;16.01;26.34
75208;BME280;63795;55.684;37.864;2023-05-10T17:33:57;100389.34;;;15.97;26.56
75208;BME280;63795;55.684;37.864;2023-05-10T17:38:58;100386.28;;;15.85;26.56
75208;BME280;63795;55.684;37.864;2023-05-10T17:43:59;100407.06;;;15.85;26.68
75208;BME280;63795;55.684;37.864;2023-05-10T17:48:59;100409.16;;;15.81;26.87
75208;BME280;63795;55.684;37.864;2023-05-10T17:54:00;100405.94;;;15.79;27.02
75208;BME280;63795;55.684;37.864;2023-05-10T17:59:01;100397.94;;;15.67;27.84
75208;BME280;63795;55.684;37.864;2023-05-10T18:04:02;100404.50;;;15.64;27.43
75208;BME280;63795;55.684;37.864;2023-05-10T18:09:05;100412.72;;;15.62;27.62
75208;BME280;63795;55.684;37.864;2023-05-10T18:14:06;100416.03;;;15.57;27.57
75208;BME280;63795;55.684;37.864;2023-05-10T18:19:06;100414.88;;;15.51;27.92
75208;BME280;63795;55.684;37.864;2023-05-10T18:24:07;100419.03;;;15.47;27.88
75208;BME280;63795;55.684;37.864;2023-05-10T18:29:07;100421.13;;;15.43;28.21
75208;BME280;63795;55.684;37.864;2023-05-10T18:34:08;100411.38;;;15.37;28.07
75208;BME280;63795;55.684;37.864;2023-05-10T18:39:12;100412.19;;;15.37;28.20
75208;BME280;63795;55.684;37.864;2023-05-10T18:44:13;100410.53;;;15.36;28.27
75208;BME280;63795;55.684;37.864;2023-05-10T18:49:13;100409.41;;;15.30;28.41
75208;BME280;63795;55.684;37.864;2023-05-10T18:54:14;100415.16;;;15.26;28.44
75208;BME280;63795;55.684;37.864;2023-05-10T18:59:14;100420.09;;;15.22;28.71
75208;BME280;63795;55.684;37.864;2023-05-10T19:04:15;100424.59;;;15.20;28.79
75208;BME280;63795;55.684;37.864;2023-05-10T19:09:16;100412.44;;;15.12;29.25
75208;BME280;63795;55.684;37.864;2023-05-10T19:14:22;100426.00;;;15.05;29.28
75208;BME280;63795;55.684;37.864;2023-05-10T19:19:27;100414.63;;;14.98;29.33
75208;BME280;63795;55.684;37.864;2023-05-10T19:24:36;100418.69;;;15.00;30.06
75208;BME280;63795;55.684;37.864;2023-05-10T19:29:37;100417.56;;;14.91;30.15
75208;BME280;63795;55.684;37.864;2023-05-10T19:34:38;100413.59;;;14.78;30.44
75208;BME280;63795;55.684;37.864;2023-05-10T19:39:41;100416.53;;;14.71;34.08
75208;BME280;63795;55.684;37.864;2023-05-10T19:44:41;100420.41;;;14.46;32.50
75208;BME280;63795;55.684;37.864;2023-05-10T19:49:42;100413.94;;;14.39;32.50
75208;BME280;63795;55.684;37.864;2023-05-10T19:54:43;100411.91;;;14.39;34.42
75208;BME280;63795;55.684;37.864;2023-05-10T19:59:43;100424.09;;;14.43;31.97
75208;BME280;63795;55.684;37.864;2023-05-10T20:04:44;100419.59;;;14.46;33.74
75208;BME280;63795;55.684;37.864;2023-05-10T20:09:44;100418.09;;;14.24;33.84
75208;BME280;63795;55.684;37.864;2023-05-10T20:14:45;100425.00;;;14.26;32.62
75208;BME280;63795;55.684;37.864;2023-05-10T20:19:45;100414.44;;;14.23;32.85
75208;BME280;63795;55.684;37.864;2023-05-10T20:24:46;100413.25;;;14.17;33.10
75208;BME280;63795;55.684;37.864;2023-05-10T20:29:47;100413.72;;;14.09;33.39
75208;BME280;63795;55.684;37.864;2023-05-10T20:34:47;100418.25;;;13.99;34.44
75208;BME280;63795;55.684;37.864;2023-05-10T20:39:48;100416.63;;;14.02;33.28
75208;BME280;63795;55.684;37.864;2023-05-10T20:44:49;100416.97;;;14.07;33.00
75208;BME280;63795;55.684;37.864;2023-05-10T20:49:49;100419.00;;;14.10;32.48
75208;BME280;63795;55.684;37.864;2023-05-10T20:54:50;100417.78;;;14.15;32.52
75208;BME280;63795;55.684;37.864;2023-05-10T20:59:51;100423.88;;;14.13;33.52
75208;BME280;63795;55.684;37.864;2023-05-10T21:04:51;100416.59;;;14.05;32.67
75208;BME280;63795;55.684;37.864;2023-05-10T21:09:52;100420.69;;;14.04;33.06
75208;BME280;63795;55.684;37.864;2023-05-10T21:14:52;100420.25;;;14.06;32.52
75208;BME280;63795;55.684;37.864;2023-05-10T21:19:53;100425.97;;;14.06;33.09
75208;BME280;63795;55.684;37.864;2023-05-10T21:24:53;100416.72;;;13.84;34.16
75208;BME280;63795;55.684;37.864;2023-05-10T21:29:54;100417.97;;;13.76;33.50
75208;BME280;63795;55.684;37.864;2023-05-10T21:34:54;100413.53;;;13.68;34.90
75208;BME280;63795;55.684;37.864;2023-05-10T21:39:55;100413.59;;;13.57;33.89
75208;BME280;63795;55.684;37.864;2023-05-10T21:44:55;100416.41;;;13.64;33.55
75208;BME280;63795;55.684;37.864;2023-05-10T21:49:56;100416.78;;;13.70;33.12
75208;BME280;63795;55.684;37.864;2023-05-10T21:54:59;100415.50;;;13.82;32.93
75208;BME280;63795;55.684;37.864;2023-05-10T21:59:59;100407.72;;;13.89;32.55
75208;BME280;63795;55.684;37.864;2023-05-10T22:05:01;100411.03;;;13.84;33.18
75208;BME280;63795;55.684;37.864;2023-05-10T22:10:02;100421.25;;;13.71;33.51
75208;BME280;63795;55.684;37.864;2023-05-10T22:15:03;100416.03;;;13.62;33.46
75208;BME280;63795;55.684;37.864;2023-05-10T22:20:05;100413.16;;;13.59;33.24
75208;BME280;63795;55.684;37.864;2023-05-10T22:25:07;100414.38;;;13.65;33.19
75208;BME280;63795;55.684;37.864;2023-05-10T22:30:08;100411.50;;;13.72;32.87
75208;BME280;63795;55.684;37.864;2023-05-10T22:35:09;100415.94;;;13.73;33.23
75208;BME280;63795;55.684;37.864;2023-05-10T22:40:10;100405.44;;;13.67;33.30
75208;BME280;63795;55.684;37.864;2023-05-10T22:45:10;100411.53;;;13.61;33.52
75208;BME280;63795;55.684;37.864;2023-05-10T22:50:11;100402.19;;;13.57;34.15
75208;BME280;63795;55.684;37.864;2023-05-10T22:55:13;100400.19;;;13.54;33.37
75208;BME280;63795;55.684;37.864;2023-05-10T23:00:14;100401.41;;;13.53;33.73
75208;BME280;63795;55.684;37.864;2023-05-10T23:05:15;100394.94;;;13.42;33.42
75208;BME280;63795;55.684;37.864;2023-05-10T23:10:16;100409.19;;;13.42;33.75
75208;BME280;63795;55.684;37.864;2023-05-10T23:15:16;100412.03;;;13.39;33.60
75208;BME280;63795;55.684;37.864;2023-05-10T23:20:17;100410.41;;;13.38;33.29
75208;BME280;63795;55.684;37.864;2023-05-10T23:25:17;100398.25;;;13.30;33.95
75208;BME280;63795;55.684;37.864;2023-05-10T23:30:18;100401.50;;;13.25;34.02
75208;BME280;63795;55.684;37.864;2023-05-10T23:35:18;100417.00;;;13.17;34.70
75208;BME280;63795;55.684;37.864;2023-05-10T23:40:19;100405.63;;;13.10;33.89
75208;BME280;63795;55.684;37.864;2023-05-10T23:45:19;100411.31;;;13.14;34.04
75208;BME280;63795;55.684;37.864;2023-05-10T23:50:20;100416.16;;;13.17;33.81
75208;BME280;63795;55.684;37.864;2023-05-10T23:55:20;100417.81;;;13.18;33.67
